Port Lavaca, TX

12:03 AM CST on December 04, 2016 (GMT -0600)
Alamo heights | | Change Station
Active Advisory: Flood Warning

Elev 36 ft 28.61 °N, 96.63 °W | Updated 1 minute ago

Light Rain
Light Rain
55.2 °F
Feels Like 55.2 °F
N
4.0
Wind Variable Wind from North
Gusts 9.0 mph

Today
High -- | Low -- °F
--% Chance of Precip.
Yesterday
High -- | Low -- °F
Precip. -- in
Pressure 29.90 in
Visibility 10.0 miles
Clouds Scattered Clouds 400 ft
Mostly Cloudy 900 ft
Overcast 11000 ft
Dew Point 53 °F
Humidity 91%
Rainfall 0.00 in
Snow Depth Not available.
7:04 AM 5:29 PM
Waxing Crescent, 20% visible
METAR KPKV 040559Z AUTO 36011KT 10SM -RA SCT004 BKN009 OVC110 12/12 A2990 RMK AO2 P0001
Pressure 29.90 in
Visibility 10.0 miles
Clouds Scattered Clouds 400 ft
Mostly Cloudy 900 ft
Overcast 11000 ft
Dew Point 53 °F
Humidity 91%
Rainfall 0.00 in
Snow Depth Not available.
7:04 AM 5:29 PM
Waxing Crescent, 20% visible
METAR KPKV 040559Z AUTO 36011KT 10SM -RA SCT004 BKN009 OVC110 12/12 A2990 RMK AO2 P0001

10-Day Weather Forecast

Almanac

Astronomy

Dec. 04, 2016 Rise Set
Actual Time
Civil Twilight
Nautical Twilight
Astronomical Twilight
Moon
Length of Visible Light
Length of Day
Tomorrow will be .
, % of the Moon is Illuminated

Today's Extremes

State Highs State Lows

Community

WunderPhotos

Upload Photos

1,955,586 photos uploaded!

WunderBlog® & News

Nearby

Air Quality

  Air Quality AQ Index Pollutant
Not available.

Snow Depth

Station Depth Elevation

Earthquake Activity

City Distance Mag. Time & Date
Minimum magnitude displayed is 2.5.

Coastal Water Temperatures

Place Temperature

Stations

Nearby Weather Stations

Station Location Temp. Windchill Dew Point Humidity Wind Precip. Elev Updated Type
                   

Watches & Warnings

Flood Warning
Issued: 7:47 PM CST Dec. 3, 2016 – National Weather Service

The Flood Warning continues for the Guadalupe River near Bloomington.
* From Tuesday evening until further notice... or until the warning is
cancelled.
* At 7:00 PM Saturday the stage was 12.9 feet.
* Minor flooding is forecast.
* Flood stage is 20.0 feet.
* Forecast: river to rise above flood stage by Tuesday evening and
continue to rise to near 22.2 feet by early Thursday morning. Additional
rises are possible thereafter.

* At 24.0 feet moderate lowland flooding occurs, with the river
reaching well into the flood plain. Any oil tank batteries, pump
jacks, and secondary roads near the river may be flooded.


Below are the latest river stages and stage forecasts:

                      fld latest forecast 6 am lst
location stg stg day time sun Mon Tue Wed Thu

Guadalupe River
Bloomington 20 12.9 Sat 07 PM 13.0 14.5 17.9 21.5 22.2


Lat... Lon 2869 9704 2869 9698 2867 9695 2857 9688
      2845 9680 2843 9685


Kw